Flight Track Log - Related Links

Times and Time Zones

All times are in EDT time to prevent confusion due to time zone crossing. See the WAV760 flight status page for this flight to view local times or setup timezone preferences in your user account.

Time Position Orientation Groundspeed Altitude Reporting Facility
EDT Latitude Longitude Course Direction KTS MPH feet Rate Location/Type
Sun 09:18:00 PM 64.8770 -148.5414 301° West  Level FlightAware Approximate
Sun 09:18:13 PM 64.8833 -148.2500 282° West 130 150 5,700  Level Anchorage Center
Sun 09:19:00 PM 64.8894 -148.6390 281° West  Level FlightAware Approximate
Sun 09:19:13 PM 64.8833 -148.3333 270° West 130 150 6,300  Level Anchorage Center
Sun 09:20:00 PM 64.8978 -148.7401 281° West  Level FlightAware Approximate
Sun 09:20:12 PM 64.9000 -148.4333 291° West 130 150 7,000  Level Anchorage Center
Sun 09:21:00 PM 64.9069 -148.8409 282° West  Level FlightAware Approximate
Sun 09:21:13 PM 64.9000 -148.5167 270° West 140 161 7,600  Level Anchorage Center
Sun 09:22:00 PM 64.9161 -148.9417 282° West  Level FlightAware Approximate
Sun 09:22:13 PM 64.9167 -148.6000 295° West 140 161 8,000  Level Anchorage Center
Sun 09:23:00 PM 64.9252 -149.0426 282° West  Level FlightAware Approximate
Sun 09:23:13 PM 64.9167 -148.7000 270° West 160 184 8,000  Level Anchorage Center
Sun 09:24:13 PM 64.9333 -148.8000 292° West 160 184 8,000  Level Anchorage Center
Sun 09:25:13 PM 64.9500 -148.9000 292° West 150 173 8,000  Level Anchorage Center
Sun 09:26:13 PM 64.9500 -149.0000 270° West 160 184 8,000  Level Anchorage Center
Sun 09:27:13 PM 64.9500 -149.1000 270° West 180 207 8,000  Level Anchorage Center
Sun 09:28:14 PM 64.9667 -149.2000 292° West 160 184 8,000  Level Anchorage Center
Sun 09:29:14 PM 64.9667 -149.3000 270° West 170 196 8,000  Level Anchorage Center
Sun 09:30:13 PM 64.9833 -149.4000 292° West 160 184 8,000  Level Anchorage Center
Sun 09:31:14 PM 64.9833 -149.5000 270° West 150 173 8,000  Level Anchorage Center
Sun 09:32:14 PM 65.0000 -149.6167 289° West 160 184 8,000  Level Anchorage Center
Sun 09:33:14 PM 65.0000 -149.7167 270° West 150 173 8,000  Level Anchorage Center
Sun 09:34:14 PM 65.0167 -149.8167 292° West 160 184 8,000  Level Anchorage Center
Sun 09:35:14 PM 65.0167 -149.9333 270° West 170 196 8,000  Level Anchorage Center
Sun 09:36:14 PM 65.0333 -150.0333 292° West 170 196 8,000  Level Anchorage Center
Sun 09:37:15 PM 65.0333 -150.1333 270° West 160 184 8,000  Level Anchorage Center
Sun 09:38:15 PM 65.0500 -150.2500 289° West 170 196 8,000  Level Anchorage Center
Sun 09:39:15 PM 65.0500 -150.3500 270° West 170 196 8,000  Level Anchorage Center
Sun 09:40:15 PM 65.0667 -150.4667 289° West 170 196 8,000 -350 Level Anchorage Center
Sun 09:41:15 PM 65.0667 -150.5833 270° West 190 219 7,300 -750 Descending Anchorage Center
Sun 09:42:15 PM 65.0833 -150.7167 287° West 200 230 6,500 -600 Descending Anchorage Center
Sun 09:43:15 PM 65.0833 -150.8333 270° West 180 207 6,100 -200 Descending Anchorage Center
Sun 09:44:15 PM 65.1000 -150.9500 289° West 170 196 6,100  Level Anchorage Center
Sun 09:45:15 PM 65.1000 -151.0667 270° West 180 207 6,100  Level Anchorage Center
Sun 09:46:15 PM 65.1167 -151.1667 292° West 180 207 6,100  Level Anchorage Center
Sun 09:47:16 PM 65.1167 -151.2833 270° West 180 207 6,100 -99 Level Anchorage Center
Sun 09:48:16 PM 65.1000 -151.4167 254° West 170 196 5,900 -400 Descending Anchorage Center
Sun 09:49:16 PM 65.1000 -151.5167 270° West 200 230 5,300 -800 Descending Anchorage Center
Sun 09:50:16 PM 65.1000 -151.6500 270° West 200 230 4,300 -650 Descending Anchorage Center
Sun 09:51:16 PM 65.1000 -151.7833 270° West 190 219 4,000 -100 Descending Anchorage Center
Sun 09:52:16 PM 65.0833 -151.9000 251° West 180 207 4,100 50 Climbing Anchorage Center
Sun 09:53:16 PM 65.1000 -152.0167 289° West 170 196 4,100  Level Anchorage Center
Sun 09:56:00 PM 65.1603 -152.0907 283° West  Level Estimated
Sun 10:03:00 PM 65.1667 -152.1000 283° West  Level FlightAware Approximate
Sun 10:04:00 PM 65.1744 -152.1081 283° West  Level Estimated
Sun 10:05:00 PM 65.1744 -152.1081 283° West  Level Estimated
Sun 10:06:00 PM 65.1744 -152.1081 283° West  Level Estimated
Sun 10:07:00 PM 65.1744 -152.1081 283° West  Level Estimated
Sun 10:08:00 PM 65.1744 -152.1081 283° West  Level Estimated

Login

Don't have an account? Register now (free) for customized features, flight alerts, and more!